createdAt,value
2022-10-19T00:00:32.116Z,59.20
2022-10-19T00:02:59.394Z,59.60
2022-10-19T00:05:26.225Z,59.20
2022-10-19T00:07:54.411Z,59.20
2022-10-19T00:10:21.362Z,59.20
2022-10-19T00:15:20.380Z,59.20
2022-10-19T00:17:47.044Z,59.20
2022-10-19T00:20:13.745Z,59.20
2022-10-19T00:22:40.401Z,59.20
2022-10-19T00:25:07.878Z,59.10
2022-10-19T00:27:35.509Z,59.20
2022-10-19T00:30:02.330Z,59.10
2022-10-19T00:32:28.948Z,59.10
2022-10-19T00:34:55.559Z,59.10
2022-10-19T00:37:22.446Z,59.10
2022-10-19T00:42:20.964Z,59.10
2022-10-19T00:44:47.746Z,59.10
2022-10-19T00:47:15.551Z,59.10
2022-10-19T00:49:45.322Z,59.10
2022-10-19T00:52:16.316Z,59.10
2022-10-19T00:54:45.690Z,59.10
2022-10-19T00:57:13.382Z,59.10
2022-10-19T00:59:43.112Z,59.10
2022-10-19T01:02:09.778Z,59.10
2022-10-19T01:04:40.102Z,59.10
2022-10-19T01:07:08.010Z,59.10
2022-10-19T01:09:35.274Z,59.10
2022-10-19T01:12:10.573Z,59.20
2022-10-19T01:14:56.224Z,59.20
2022-10-19T01:17:39.737Z,59.10
2022-10-19T01:20:27.473Z,59.10
2022-10-19T01:23:13.359Z,59.10
2022-10-19T01:25:46.638Z,59.20
2022-10-19T01:28:13.297Z,59.00
2022-10-19T01:30:55.990Z,58.90
2022-10-19T01:33:47.442Z,59.00
2022-10-19T01:36:36.710Z,59.00
2022-10-19T01:39:18.682Z,59.10
2022-10-19T01:42:00.279Z,59.10
2022-10-19T01:44:42.680Z,59.00
2022-10-19T01:47:15.562Z,59.00
2022-10-19T01:49:49.074Z,58.90
2022-10-19T01:52:19.637Z,58.90
2022-10-19T01:54:50.472Z,58.70
2022-10-19T01:57:23.957Z,58.70
2022-10-19T01:59:51.649Z,58.70
2022-10-19T02:02:19.727Z,58.70
2022-10-19T02:04:49.077Z,58.70
2022-10-19T02:07:16.544Z,58.70
2022-10-19T02:09:43.541Z,58.70
2022-10-19T02:12:12.433Z,58.60
2022-10-19T02:14:44.267Z,58.70
2022-10-19T02:17:18.178Z,58.80
2022-10-19T02:19:44.838Z,58.70
2022-10-19T02:22:12.999Z,58.60
2022-10-19T02:24:40.009Z,58.60
2022-10-19T02:27:08.431Z,58.60
2022-10-19T02:29:37.741Z,58.60
2022-10-19T02:32:05.166Z,58.60
2022-10-19T02:34:32.644Z,58.60
2022-10-19T02:36:59.477Z,58.60
2022-10-19T02:39:26.404Z,58.50
2022-10-19T02:42:12.065Z,58.40
2022-10-19T02:44:53.559Z,58.50
2022-10-19T02:47:26.030Z,58.50
2022-10-19T02:49:53.610Z,58.50
2022-10-19T02:52:20.242Z,58.50
2022-10-19T02:54:47.087Z,58.50
2022-10-19T02:57:25.366Z,58.50
2022-10-19T02:59:52.706Z,58.50
2022-10-19T03:02:20.514Z,58.50
2022-10-19T03:07:21.040Z,58.50
2022-10-19T03:09:47.794Z,58.50
2022-10-19T03:12:15.701Z,58.50
2022-10-19T03:14:43.227Z,58.40
2022-10-19T03:17:10.006Z,58.40
2022-10-19T03:19:37.725Z,58.30
2022-10-19T03:22:04.689Z,58.30
2022-10-19T03:24:31.821Z,58.30
2022-10-19T03:26:58.524Z,58.30
2022-10-19T03:29:25.184Z,58.30
2022-10-19T03:31:52.058Z,58.20
2022-10-19T03:34:18.680Z,58.30
2022-10-19T03:36:45.925Z,58.80
2022-10-19T03:39:14.841Z,58.30
2022-10-19T03:41:41.861Z,58.30
2022-10-19T03:44:09.898Z,58.30
2022-10-19T03:46:37.593Z,58.30
2022-10-19T03:49:04.627Z,58.30
2022-10-19T03:51:32.712Z,58.30
2022-10-19T03:54:04.285Z,58.30
2022-10-19T03:56:32.108Z,58.30
2022-10-19T03:59:00.286Z,58.30
2022-10-19T04:01:34.503Z,58.30
2022-10-19T04:04:03.631Z,58.30
2022-10-19T04:06:36.584Z,58.40
2022-10-19T04:09:04.511Z,58.40
2022-10-19T04:11:32.416Z,58.40
2022-10-19T04:13:59.710Z,58.40
2022-10-19T04:16:28.039Z,58.40
2022-10-19T04:18:54.967Z,58.40
2022-10-19T04:21:29.073Z,58.40
2022-10-19T04:24:08.219Z,58.40
2022-10-19T04:26:39.918Z,58.40
2022-10-19T04:29:06.591Z,58.40
2022-10-19T04:31:33.208Z,58.40
2022-10-19T04:34:01.457Z,58.30
2022-10-19T04:36:28.092Z,58.40
2022-10-19T04:38:55.072Z,58.40
2022-10-19T04:41:22.881Z,58.40
2022-10-19T04:43:54.369Z,58.80
2022-10-19T04:46:21.024Z,58.40
2022-10-19T04:48:48.482Z,58.40
2022-10-19T04:51:16.729Z,58.40
2022-10-19T04:53:44.200Z,58.40
2022-10-19T04:56:22.887Z,58.40
2022-10-19T04:58:49.650Z,58.40
2022-10-19T05:01:18.912Z,58.30
2022-10-19T05:03:46.660Z,58.30
2022-10-19T05:06:14.626Z,58.30
2022-10-19T05:08:41.853Z,58.20
2022-10-19T05:11:14.499Z,58.30
2022-10-19T05:13:42.477Z,58.30
2022-10-19T05:16:13.602Z,58.30
2022-10-19T05:18:40.370Z,58.30
2022-10-19T05:21:10.219Z,58.20
2022-10-19T05:23:37.863Z,58.20
2022-10-19T05:26:11.902Z,58.20
2022-10-19T05:28:38.984Z,58.20
2022-10-19T05:31:27.332Z,58.10
2022-10-19T05:33:55.954Z,58.20
2022-10-19T05:36:35.158Z,58.10
2022-10-19T05:39:08.437Z,58.10
2022-10-19T05:41:35.329Z,58.10
2022-10-19T05:44:03.130Z,58.10
2022-10-19T05:46:30.545Z,58.00
2022-10-19T05:48:58.661Z,58.10
2022-10-19T05:51:27.562Z,58.10
2022-10-19T05:53:55.868Z,58.10
2022-10-19T05:56:28.106Z,58.20
2022-10-19T05:58:59.832Z,58.20
2022-10-19T06:01:28.406Z,58.60
2022-10-19T06:03:57.208Z,58.10
2022-10-19T06:06:24.801Z,58.10
2022-10-19T06:08:53.021Z,58.20
2022-10-19T06:11:26.385Z,58.20
2022-10-19T06:13:55.790Z,58.20
2022-10-19T06:16:24.000Z,58.20
2022-10-19T06:18:50.974Z,58.20
2022-10-19T06:21:19.397Z,58.20
2022-10-19T06:23:54.189Z,58.20
2022-10-19T06:26:21.367Z,58.20
2022-10-19T06:28:48.289Z,58.20
2022-10-19T06:31:16.014Z,58.20
2022-10-19T06:33:47.278Z,58.20
2022-10-19T06:36:19.668Z,58.30
2022-10-19T06:38:46.744Z,58.30
2022-10-19T06:41:13.790Z,58.30
2022-10-19T06:43:42.787Z,58.30
2022-10-19T06:46:12.450Z,58.30
2022-10-19T06:48:39.171Z,58.30
2022-10-19T06:51:07.715Z,58.30
2022-10-19T06:53:35.744Z,58.20
2022-10-19T06:56:05.753Z,58.30
2022-10-19T06:58:39.175Z,58.20
2022-10-19T07:01:11.795Z,58.20
2022-10-19T07:03:38.530Z,58.20
2022-10-19T07:06:08.364Z,58.20
2022-10-19T07:08:36.825Z,58.20
2022-10-19T07:11:07.473Z,58.20
2022-10-19T07:13:34.915Z,58.20
2022-10-19T07:16:07.243Z,58.30
2022-10-19T07:18:35.697Z,58.30
2022-10-19T07:21:05.297Z,58.50
2022-10-19T07:26:23.911Z,58.70
2022-10-19T07:28:51.259Z,58.70
2022-10-19T07:31:20.675Z,58.90
2022-10-19T07:33:51.214Z,59.00
2022-10-19T07:36:18.147Z,59.20
2022-10-19T07:38:44.955Z,59.30
2022-10-19T07:41:14.130Z,59.20
2022-10-19T07:43:42.459Z,59.30
2022-10-19T07:46:12.614Z,59.00
2022-10-19T07:48:39.969Z,58.60
2022-10-19T07:51:08.053Z,58.30
2022-10-19T07:53:35.872Z,58.10
2022-10-19T07:56:07.766Z,57.90
2022-10-19T07:58:36.389Z,57.70
2022-10-19T08:01:06.233Z,57.70
2022-10-19T08:06:21.896Z,57.70
2022-10-19T08:08:50.014Z,57.50
2022-10-19T08:11:20.018Z,57.40
2022-10-19T08:13:47.234Z,57.60
2022-10-19T08:16:44.510Z,57.70
2022-10-19T08:19:13.601Z,58.10
2022-10-19T08:21:42.429Z,58.20
2022-10-19T08:24:10.315Z,58.30
2022-10-19T08:26:38.864Z,58.80
2022-10-19T08:29:35.361Z,58.60
2022-10-19T08:32:02.342Z,58.80
2022-10-19T08:34:28.933Z,59.00
2022-10-19T08:36:56.188Z,59.80
2022-10-19T08:39:22.874Z,63.10
2022-10-19T08:42:00.963Z,68.00
2022-10-19T08:44:48.997Z,72.80
2022-10-19T08:47:31.194Z,77.50
2022-10-19T08:49:59.770Z,80.70
2022-10-19T08:52:34.600Z,77.20
2022-10-19T08:55:09.177Z,72.60
2022-10-19T08:58:01.708Z,69.10
2022-10-19T09:00:53.238Z,62.00
2022-10-19T09:03:32.028Z,58.90
2022-10-19T09:06:20.702Z,58.50
2022-10-19T09:08:50.319Z,56.30
2022-10-19T09:11:22.473Z,56.30
2022-10-19T09:14:04.717Z,54.30
2022-10-19T09:16:33.181Z,54.30
2022-10-19T09:18:59.858Z,52.90
2022-10-19T09:21:46.119Z,51.80
2022-10-19T09:24:38.525Z,50.20
2022-10-19T09:27:10.833Z,48.30
2022-10-19T09:29:42.155Z,50.40
2022-10-19T09:32:20.062Z,49.20
2022-10-19T09:34:54.921Z,47.10
2022-10-19T09:37:26.636Z,47.10
2022-10-19T09:39:55.545Z,47.60
2022-10-19T09:42:33.675Z,46.70
2022-10-19T09:45:31.404Z,45.00
2022-10-19T09:48:08.668Z,44.90
2022-10-19T09:50:44.451Z,43.80
2022-10-19T09:53:20.505Z,41.30
2022-10-19T09:56:20.967Z,40.30
2022-10-19T09:58:50.881Z,40.20
2022-10-19T10:01:43.130Z,40.50
2022-10-19T10:04:14.388Z,38.50
2022-10-19T10:06:42.690Z,39.50
2022-10-19T10:09:22.097Z,38.60
2022-10-19T10:11:50.905Z,37.00
2022-10-19T10:14:20.830Z,37.60
2022-10-19T10:16:47.713Z,37.50
2022-10-19T10:19:16.868Z,37.20
2022-10-19T10:21:49.964Z,36.50
2022-10-19T10:24:19.498Z,35.50
2022-10-19T10:26:49.450Z,35.80
2022-10-19T10:29:20.538Z,35.20
2022-10-19T10:32:16.277Z,34.20
2022-10-19T10:35:02.858Z,33.50
2022-10-19T10:37:40.453Z,33.60
2022-10-19T10:40:29.784Z,33.30
2022-10-19T10:43:01.805Z,32.90
2022-10-19T10:45:53.565Z,33.50
2022-10-19T10:48:39.723Z,32.70
2022-10-19T10:51:20.871Z,32.20
2022-10-19T10:53:48.341Z,31.90
2022-10-19T10:56:29.012Z,32.60
2022-10-19T10:59:12.923Z,31.60
2022-10-19T11:02:11.433Z,31.30
2022-10-19T11:04:47.404Z,31.30
2022-10-19T11:07:28.221Z,31.70
2022-10-19T11:10:03.790Z,30.90
2022-10-19T11:12:43.830Z,31.10
2022-10-19T11:15:26.111Z,30.50
2022-10-19T11:18:16.223Z,30.40
2022-10-19T11:21:08.268Z,30.40
2022-10-19T11:23:42.458Z,30.30
2022-10-19T11:26:24.110Z,30.00
2022-10-19T11:29:13.425Z,29.90
2022-10-19T11:31:47.166Z,29.70
2022-10-19T11:34:39.738Z,30.00
2022-10-19T11:37:30.694Z,29.50
2022-10-19T11:40:22.078Z,29.60
2022-10-19T11:42:52.039Z,29.70
2022-10-19T11:45:24.322Z,29.80
2022-10-19T11:48:16.326Z,29.30
2022-10-19T11:51:17.005Z,29.20
2022-10-19T11:54:06.041Z,29.20
2022-10-19T11:57:01.805Z,29.00
2022-10-19T11:59:52.725Z,29.50
2022-10-19T12:02:42.703Z,29.10
2022-10-19T12:05:16.165Z,29.00
2022-10-19T12:08:12.014Z,29.20
2022-10-19T12:11:01.976Z,29.10
2022-10-19T12:14:00.313Z,28.90
2022-10-19T12:16:37.504Z,28.60
2022-10-19T12:19:07.127Z,28.70
2022-10-19T12:21:37.942Z,29.00
2022-10-19T12:24:12.556Z,28.80
2022-10-19T12:26:40.770Z,28.80
2022-10-19T12:29:15.547Z,28.80
2022-10-19T12:31:42.732Z,28.60
2022-10-19T12:34:24.794Z,29.20
2022-10-19T12:37:02.598Z,28.50
2022-10-19T12:39:43.064Z,28.70
2022-10-19T12:42:32.854Z,28.50
2022-10-19T12:45:26.997Z,28.50
2022-10-19T12:48:08.513Z,28.60
2022-10-19T12:50:57.154Z,28.60
2022-10-19T12:53:30.773Z,28.60
2022-10-19T12:56:12.440Z,28.70
2022-10-19T12:58:46.590Z,28.60
2022-10-19T13:01:20.161Z,28.60
2022-10-19T13:03:49.834Z,28.70
2022-10-19T13:06:30.816Z,28.70
2022-10-19T13:09:01.523Z,29.10
2022-10-19T13:11:28.496Z,28.80
2022-10-19T13:14:01.939Z,28.70
2022-10-19T13:16:28.534Z,28.80
2022-10-19T13:19:13.500Z,28.80
2022-10-19T13:21:47.392Z,28.70
2022-10-19T13:24:26.494Z,28.70
2022-10-19T13:27:03.138Z,28.60
2022-10-19T13:29:40.222Z,28.60
2022-10-19T13:32:32.125Z,28.60
2022-10-19T13:35:21.116Z,28.70
2022-10-19T13:38:18.822Z,28.60
2022-10-19T13:40:48.625Z,28.80
2022-10-19T13:43:43.846Z,28.90
2022-10-19T13:46:13.499Z,29.00
2022-10-19T13:49:02.440Z,29.10
2022-10-19T13:52:03.285Z,29.00
2022-10-19T13:55:07.652Z,29.10
2022-10-19T13:58:05.412Z,29.00
2022-10-19T14:01:10.712Z,29.00
2022-10-19T14:04:05.052Z,29.10
2022-10-19T14:06:49.334Z,29.10
2022-10-19T14:09:48.456Z,29.10
2022-10-19T14:12:27.685Z,29.20
2022-10-19T14:14:55.219Z,29.30
2022-10-19T14:17:25.284Z,29.30
2022-10-19T14:19:55.344Z,29.20
2022-10-19T14:22:35.954Z,29.40
2022-10-19T14:25:17.615Z,29.80
2022-10-19T14:27:46.105Z,29.50
2022-10-19T14:30:32.309Z,29.60
2022-10-19T14:33:02.390Z,29.80
2022-10-19T14:35:38.153Z,29.70
2022-10-19T14:38:15.477Z,29.80
2022-10-19T14:40:42.717Z,29.90
2022-10-19T14:43:29.143Z,29.80
2022-10-19T14:46:15.273Z,30.00
2022-10-19T14:48:48.400Z,30.30
2022-10-19T14:51:21.399Z,30.10
2022-10-19T14:54:01.273Z,30.40
2022-10-19T14:56:43.021Z,30.60
2022-10-19T14:59:32.038Z,30.80
2022-10-19T15:02:02.524Z,31.00
2022-10-19T15:04:33.699Z,31.10
2022-10-19T15:07:04.190Z,31.30
2022-10-19T15:09:47.704Z,31.50
2022-10-19T15:12:19.230Z,31.70
2022-10-19T15:14:47.941Z,31.80
2022-10-19T15:17:30.078Z,32.00
2022-10-19T15:20:01.553Z,32.50
2022-10-19T15:22:31.441Z,32.50
2022-10-19T15:25:07.466Z,32.80
2022-10-19T15:27:39.828Z,33.10
2022-10-19T15:30:27.914Z,33.10
2022-10-19T15:33:13.036Z,33.70
2022-10-19T15:35:42.517Z,33.80
2022-10-19T15:38:23.084Z,33.60
2022-10-19T15:40:57.579Z,34.30
2022-10-19T15:43:30.509Z,34.30
2022-10-19T15:46:02.244Z,34.60
2022-10-19T15:48:44.793Z,34.50
2022-10-19T15:51:23.501Z,34.70
2022-10-19T15:53:57.999Z,34.70
2022-10-19T15:56:33.469Z,34.50
2022-10-19T15:59:02.904Z,34.30
2022-10-19T16:01:32.126Z,34.80
2022-10-19T16:04:00.163Z,34.60
2022-10-19T16:06:30.557Z,34.60
2022-10-19T16:09:00.262Z,34.80
2022-10-19T16:11:28.874Z,35.10
2022-10-19T16:13:55.903Z,35.20
2022-10-19T16:16:25.397Z,35.20
2022-10-19T16:18:53.153Z,35.50
2022-10-19T16:21:22.690Z,35.60
2022-10-19T16:23:49.502Z,35.80
2022-10-19T16:26:17.131Z,35.90
2022-10-19T16:28:44.545Z,36.10
2022-10-19T16:31:12.239Z,36.20
2022-10-19T16:33:38.941Z,36.30
2022-10-19T16:36:07.057Z,36.50
2022-10-19T16:38:34.346Z,36.70
2022-10-19T16:41:03.512Z,37.20
2022-10-19T16:43:30.575Z,36.90
2022-10-19T16:45:57.820Z,37.00
2022-10-19T16:48:24.758Z,37.30
2022-10-19T16:51:06.896Z,37.40
2022-10-19T16:53:38.015Z,38.40
2022-10-19T16:56:09.313Z,38.00
2022-10-19T16:58:37.372Z,38.10
2022-10-19T17:01:12.437Z,38.10
2022-10-19T17:03:39.446Z,38.70
2022-10-19T17:06:07.392Z,38.40
2022-10-19T17:09:07.407Z,39.00
2022-10-19T17:11:23.089Z,38.60
2022-10-19T17:13:52.085Z,38.80
2022-10-19T17:16:20.610Z,39.00
2022-10-19T17:18:47.798Z,39.10
2022-10-19T17:21:18.708Z,39.20
2022-10-19T17:23:45.866Z,39.40
2022-10-19T17:26:13.707Z,39.40
2022-10-19T17:28:40.648Z,39.60
2022-10-19T17:31:13.293Z,39.70
2022-10-19T17:33:40.950Z,40.00
2022-10-19T17:36:13.521Z,40.10
2022-10-19T17:38:40.887Z,40.20
2022-10-19T17:41:13.329Z,40.20
2022-10-19T17:43:41.794Z,40.40
2022-10-19T17:46:11.973Z,40.50
2022-10-19T17:48:40.171Z,41.20
2022-10-19T17:51:19.038Z,40.70
2022-10-19T17:53:47.779Z,41.30
2022-10-19T17:56:19.504Z,40.90
2022-10-19T17:58:46.522Z,41.20
2022-10-19T18:01:14.241Z,41.10
2022-10-19T18:03:41.428Z,41.40
2022-10-19T18:06:14.442Z,41.40
2022-10-19T18:08:43.956Z,41.60
2022-10-19T18:11:22.654Z,41.70
2022-10-19T18:13:52.116Z,41.80
2022-10-19T18:16:25.197Z,41.80
2022-10-19T18:18:54.998Z,42.10
2022-10-19T18:21:25.354Z,42.10
2022-10-19T18:23:53.597Z,42.30
2022-10-19T18:26:22.508Z,42.30
2022-10-19T18:28:52.436Z,42.50
2022-10-19T18:31:21.914Z,42.50
2022-10-19T18:33:54.494Z,42.70
2022-10-19T18:36:21.304Z,42.80
2022-10-19T18:38:56.629Z,42.80
2022-10-19T18:41:24.233Z,43.30
2022-10-19T18:43:57.078Z,43.00
2022-10-19T18:46:25.684Z,43.40
2022-10-19T18:48:53.088Z,43.30
2022-10-19T18:51:20.859Z,43.30
2022-10-19T18:53:47.713Z,43.50
2022-10-19T18:56:17.501Z,43.50
2022-10-19T18:58:45.017Z,43.60
2022-10-19T19:01:18.318Z,43.70
2022-10-19T19:03:49.794Z,43.80
2022-10-19T19:06:25.345Z,44.00
2022-10-19T19:09:00.851Z,44.00
2022-10-19T19:11:34.266Z,44.40
2022-10-19T19:14:12.120Z,44.10
2022-10-19T19:16:39.821Z,44.20
2022-10-19T19:19:07.110Z,44.20
2022-10-19T19:21:35.636Z,44.30
2022-10-19T19:24:04.822Z,44.60
2022-10-19T19:26:34.560Z,44.60
2022-10-19T19:29:02.389Z,44.70
2022-10-19T19:31:29.902Z,44.70
2022-10-19T19:33:59.733Z,44.80
2022-10-19T19:36:27.956Z,45.00
2022-10-19T19:38:56.112Z,45.00
2022-10-19T19:41:23.107Z,45.00
2022-10-19T19:43:50.060Z,45.10
2022-10-19T19:46:19.445Z,45.20
2022-10-19T19:48:48.582Z,45.30
2022-10-19T19:51:20.779Z,45.40
2022-10-19T19:53:48.317Z,45.50
2022-10-19T19:56:16.265Z,45.50
2022-10-19T19:58:44.144Z,45.70
2022-10-19T20:01:19.451Z,45.80
2022-10-19T20:03:47.004Z,46.20
2022-10-19T20:06:15.976Z,46.00
2022-10-19T20:08:42.858Z,46.20
2022-10-19T20:11:12.142Z,46.10
2022-10-19T20:13:39.283Z,46.20
2022-10-19T20:16:12.566Z,46.30
2022-10-19T20:18:47.352Z,46.50
2022-10-19T20:21:14.784Z,46.50
2022-10-19T20:23:45.686Z,46.40
2022-10-19T20:26:16.582Z,46.70
2022-10-19T20:28:43.213Z,46.90
2022-10-19T20:31:11.017Z,46.80
2022-10-19T20:33:39.008Z,46.90
2022-10-19T20:36:07.148Z,46.90
2022-10-19T20:38:35.561Z,47.10
2022-10-19T20:41:08.233Z,47.20
2022-10-19T20:43:36.418Z,47.50
2022-10-19T20:46:17.919Z,47.40
2022-10-19T20:48:45.344Z,47.70
2022-10-19T20:51:30.560Z,47.60
2022-10-19T20:54:01.048Z,48.20
2022-10-19T20:56:34.225Z,47.80
2022-10-19T21:01:37.733Z,47.90
2022-10-19T21:04:06.531Z,47.90
2022-10-19T21:06:34.974Z,48.00
2022-10-19T21:09:01.917Z,48.10
2022-10-19T21:11:31.395Z,48.10
2022-10-19T21:14:07.174Z,48.30
2022-10-19T21:16:35.223Z,48.70
2022-10-19T21:19:04.429Z,48.30
2022-10-19T21:21:34.053Z,48.40
2022-10-19T21:24:10.049Z,48.40
2022-10-19T21:26:37.319Z,48.40
2022-10-19T21:29:05.526Z,48.30
2022-10-19T21:31:32.288Z,48.40
2022-10-19T21:33:58.921Z,48.50
2022-10-19T21:36:25.751Z,48.50
2022-10-19T21:38:52.406Z,48.60
2022-10-19T21:41:23.875Z,48.70
2022-10-19T21:43:53.842Z,48.80
2022-10-19T21:46:22.250Z,48.80
2022-10-19T21:48:50.262Z,48.90
2022-10-19T21:51:16.837Z,49.00
2022-10-19T21:53:44.434Z,49.10
2022-10-19T21:56:11.213Z,49.20
2022-10-19T21:58:38.003Z,49.20
2022-10-19T22:01:08.274Z,49.20
2022-10-19T22:03:34.931Z,49.50
2022-10-19T22:06:01.852Z,49.30
2022-10-19T22:08:28.796Z,49.30
2022-10-19T22:10:55.685Z,49.40
2022-10-19T22:13:22.312Z,49.50
2022-10-19T22:15:49.006Z,49.50
2022-10-19T22:18:15.809Z,49.60
2022-10-19T22:20:42.457Z,49.70
2022-10-19T22:23:09.238Z,49.70
2022-10-19T22:25:36.151Z,49.70
2022-10-19T22:28:03.360Z,49.80
2022-10-19T22:30:30.022Z,49.70
2022-10-19T22:32:56.931Z,49.80
2022-10-19T22:35:23.692Z,49.90
2022-10-19T22:37:50.494Z,49.90
2022-10-19T22:40:17.176Z,49.80
2022-10-19T22:42:43.888Z,49.80
2022-10-19T22:45:10.670Z,49.90
2022-10-19T22:47:37.332Z,49.90
2022-10-19T22:50:04.543Z,49.90
2022-10-19T22:52:31.182Z,49.90
2022-10-19T22:54:58.062Z,49.80
2022-10-19T22:57:24.720Z,49.80
2022-10-19T22:59:51.575Z,49.90
2022-10-19T23:02:18.206Z,50.00
2022-10-19T23:04:45.008Z,50.10
2022-10-19T23:09:43.482Z,50.10
2022-10-19T23:12:10.176Z,50.20
2022-10-19T23:14:36.871Z,50.30
2022-10-19T23:17:03.565Z,50.30
2022-10-19T23:19:30.397Z,50.30
2022-10-19T23:21:57.003Z,50.40
2022-10-19T23:24:24.132Z,50.40
2022-10-19T23:26:50.792Z,50.50
2022-10-19T23:29:17.684Z,50.50
2022-10-19T23:31:44.287Z,50.60
2022-10-19T23:34:10.973Z,50.60
2022-10-19T23:36:37.863Z,50.70
2022-10-19T23:39:04.596Z,50.70
2022-10-19T23:41:31.982Z,50.80
2022-10-19T23:43:58.642Z,50.80
2022-10-19T23:46:25.542Z,50.90
2022-10-19T23:48:52.134Z,50.90
2022-10-19T23:51:21.273Z,50.90
2022-10-19T23:53:50.153Z,51.00
2022-10-19T23:56:23.129Z,51.00
2022-10-19T23:58:50.753Z,51.20
